Time;durP1;ratioP1;P1;durP2;ratioP2;P2;SDS_P1;SDS_P2;PMS_P1;PMS_P2;Temp;Humidity;BMP_temperature;BMP_pressure;BME280_temperature;BME280_humidity;BME280_pressure;Samples;Min_cycle;Max_cycle;Signal;HPM_P1;HPM_P2
2020/12/02 00:01:25;;;;;;;420.42;44.95;;;0.80;99.90;;;;;;5045462;28;20095;-74
2020/12/02 00:03:59;;;;;;;410.45;48.28;;;0.80;99.90;;;;;;5051562;28;20040;-74
2020/12/02 00:06:28;;;;;;;581.58;70.35;;;0.80;99.90;;;;;;5051168;28;20080;-74
2020/12/02 00:09:00;;;;;;;325.60;48.22;;;0.80;99.90;;;;;;5052596;28;20102;-74
2020/12/02 00:11:28;;;;;;;290.63;40.13;;;0.80;99.90;;;;;;5041343;28;20049;-74
2020/12/02 00:13:59;;;;;;;422.15;42.50;;;0.80;99.90;;;;;;5052386;28;20198;-75
2020/12/02 00:16:28;;;;;;;457.50;43.47;;;0.80;99.90;;;;;;5047314;28;20132;-74
2020/12/02 00:18:56;;;;;;;202.95;35.55;;;0.80;99.90;;;;;;5050944;28;20106;-73
2020/12/02 00:21:24;;;;;;;288.90;38.20;;;0.80;99.90;;;;;;5036754;28;20148;-74
2020/12/02 00:23:52;;;;;;;271.73;36.15;;;0.80;99.90;;;;;;5051684;28;20495;-74
2020/12/02 00:26:20;;;;;;;297.15;39.75;;;0.80;99.90;;;;;;5051039;28;20088;-73
2020/12/02 00:28:47;;;;;;;206.68;34.25;;;0.80;99.90;;;;;;5050402;28;20519;-73
2020/12/02 00:31:14;;;;;;;268.10;36.53;;;0.80;99.90;;;;;;5046132;28;20121;-73
2020/12/02 00:33:41;;;;;;;327.48;36.72;;;0.80;99.90;;;;;;5049565;28;20377;-73
2020/12/02 00:36:07;;;;;;;218.20;31.77;;;0.80;99.90;;;;;;5048745;28;20079;-73
2020/12/02 00:38:33;;;;;;;208.27;31.08;;;0.80;99.90;;;;;;5051586;28;20124;-74
2020/12/02 00:41:00;;;;;;;226.50;33.22;;;0.80;99.90;;;;;;5042155;28;20492;-74
2020/12/02 00:43:28;;;;;;;261.48;33.22;;;0.80;99.90;;;;;;5051610;28;20563;-74
2020/12/02 00:45:57;;;;;;;230.13;33.17;;;0.80;99.90;;;;;;5041047;28;20048;-73
2020/12/02 00:48:25;;;;;;;225.13;30.40;;;0.80;99.90;;;;;;5040985;28;20039;-74
2020/12/02 00:50:52;;;;;;;384.60;36.35;;;0.80;99.90;;;;;;5048606;28;20132;-73
2020/12/02 00:53:22;;;;;;;197.27;30.15;;;0.80;99.90;;;;;;5051683;28;20208;-74
2020/12/02 00:55:50;;;;;;;253.63;31.05;;;0.80;99.90;;;;;;5050355;28;20055;-73
2020/12/02 00:58:55;;;;;;;333.55;33.65;;;0.80;99.90;;;;;;5036052;28;20080;-73
2020/12/02 01:01:33;;;;;;;327.40;33.15;;;0.80;99.90;;;;;;5040900;28;20155;-73
2020/12/02 01:04:01;;;;;;;150.40;27.88;;;0.80;99.90;;;;;;5050287;28;20131;-73
2020/12/02 01:06:28;;;;;;;299.17;32.35;;;0.80;99.90;;;;;;5049822;28;20083;-74
2020/12/02 01:08:55;;;;;;;282.45;33.17;;;0.90;99.90;;;;;;5050136;28;20052;-73
2020/12/02 01:11:24;;;;;;;231.13;30.77;;;0.90;99.90;;;;;;5037442;28;20471;-73
2020/12/02 01:14:00;;;;;;;245.35;29.83;;;0.90;99.90;;;;;;5049920;28;20061;-73
2020/12/02 01:16:37;;;;;;;259.67;30.42;;;0.90;99.90;;;;;;5031880;28;20132;-73
2020/12/02 01:19:13;;;;;;;185.00;27.27;;;0.90;99.90;;;;;;5031067;28;20104;-74
2020/12/02 01:21:48;;;;;;;247.48;32.75;;;0.90;99.90;;;;;;5008455;28;20077;-74
2020/12/02 01:24:21;;;;;;;163.95;29.35;;;0.90;99.90;;;;;;5022101;28;20120;-73
2020/12/02 01:27:08;;;;;;;230.50;33.00;;;0.80;99.90;;;;;;5022919;28;20061;-72
2020/12/02 01:29:34;;;;;;;197.43;31.00;;;0.80;99.90;;;;;;5024687;28;20108;-74
2020/12/02 01:32:01;;;;;;;180.48;33.05;;;0.80;99.90;;;;;;5025963;28;20099;-73
2020/12/02 01:34:28;;;;;;;172.20;32.90;;;0.80;99.90;;;;;;5005291;28;20056;-74
2020/12/02 01:37:20;;;;;;;174.48;32.13;;;0.80;99.90;;;;;;5023275;28;20105;-73
2020/12/02 01:40:17;;;;;;;266.45;37.05;;;0.80;99.90;;;;;;5000141;28;20200;-73
2020/12/02 01:42:51;;;;;;;213.45;34.78;;;0.80;99.90;;;;;;5012646;28;20045;-72
2020/12/02 01:45:22;;;;;;;523.00;45.88;;;0.80;99.90;;;;;;5028254;28;20120;-73
2020/12/02 01:47:58;;;;;;;368.70;39.63;;;0.80;99.90;;;;;;5012089;28;20041;-74
2020/12/02 01:50:30;;;;;;;338.70;38.47;;;0.80;99.90;;;;;;5027803;28;20336;-73
2020/12/02 01:53:33;;;;;;;522.33;45.20;;;0.80;99.90;;;;;;5030177;28;20118;-73
2020/12/02 01:56:04;;;;;;;;;;;0.70;99.90;;;;;;5012038;28;20053;-73
2020/12/02 01:59:03;;;;;;;269.65;35.13;;;0.70;99.90;;;;;;5012576;28;19925;-74
2020/12/02 02:01:57;;;;;;;325.85;37.25;;;0.80;99.90;;;;;;5019195;28;20131;-74
2020/12/02 02:04:33;;;;;;;555.45;41.78;;;0.70;99.90;;;;;;5029644;28;20531;-74
2020/12/02 02:07:00;;;;;;;588.45;50.00;;;0.80;99.90;;;;;;5029922;28;20072;-73
2020/12/02 02:09:28;;;;;;;374.48;40.35;;;0.70;99.90;;;;;;5012109;28;20080;-75
2020/12/02 02:12:25;;;;;;;313.88;38.42;;;0.70;99.90;;;;;;5029450;28;20053;-73
2020/12/02 02:15:30;;;;;;;498.98;45.83;;;0.70;99.90;;;;;;5014592;28;20180;-72
2020/12/02 02:17:58;;;;;;;367.00;44.03;;;0.70;99.90;;;;;;5044021;28;20098;-73
2020/12/02 02:20:31;;;;;;;910.15;69.50;;;0.70;99.90;;;;;;5048817;28;20091;-73
2020/12/02 02:22:57;;;;;;;;;;;0.70;99.90;;;;;;5048339;28;20475;-75
2020/12/02 02:25:24;;;;;;;492.83;48.15;;;0.70;99.90;;;;;;5045005;28;20003;-73
2020/12/02 02:27:51;;;;;;;444.10;47.05;;;0.70;99.90;;;;;;5047977;28;20057;-74
2020/12/02 02:30:17;;;;;;;700.65;59.88;;;0.70;99.90;;;;;;5044652;28;20075;-72
2020/12/02 02:32:46;;;;;;;668.50;54.80;;;0.70;99.90;;;;;;5049188;28;20103;-73
2020/12/02 02:35:13;;;;;;;390.33;47.00;;;0.70;99.90;;;;;;5042148;28;20148;-73
2020/12/02 02:37:43;;;;;;;650.83;54.38;;;0.70;99.90;;;;;;5036816;28;20048;-72
2020/12/02 02:40:12;;;;;;;603.30;53.17;;;0.70;99.90;;;;;;5041635;28;20123;-73
2020/12/02 02:42:47;;;;;;;704.17;55.60;;;0.60;99.90;;;;;;5040798;28;20049;-73
2020/12/02 02:45:32;;;;;;;473.92;48.67;;;0.60;99.90;;;;;;5039394;28;20136;-74
2020/12/02 02:48:06;;;;;;;559.08;53.88;;;0.60;99.90;;;;;;5048321;28;20076;-73
2020/12/02 02:50:34;;;;;;;585.22;56.08;;;0.60;99.90;;;;;;5048674;28;20364;-73
2020/12/02 02:53:02;;;;;;;643.25;57.25;;;0.60;99.90;;;;;;5049617;28;20103;-73
2020/12/02 02:55:29;;;;;;;667.70;54.55;;;0.60;99.90;;;;;;5048298;28;20129;-74
2020/12/02 02:57:58;;;;;;;409.23;46.70;;;0.60;99.90;;;;;;5037756;28;20094;-73
2020/12/02 03:00:31;;;;;;;682.20;59.22;;;0.60;99.90;;;;;;5043571;28;20137;-74
2020/12/02 03:02:58;;;;;;;550.72;56.97;;;0.60;99.90;;;;;;5035159;28;20130;-74
2020/12/02 03:05:25;;;;;;;503.55;57.13;;;0.60;99.90;;;;;;5044577;28;20111;-74
2020/12/02 03:07:58;;;;;;;465.45;49.70;;;0.60;99.90;;;;;;5047848;28;20053;-74
2020/12/02 03:10:28;;;;;;;515.50;51.38;;;0.60;99.90;;;;;;5047224;28;20518;-74
2020/12/02 03:12:58;;;;;;;573.97;54.80;;;0.60;99.90;;;;;;5038631;28;20404;-73
2020/12/02 03:15:25;;;;;;;456.85;51.08;;;0.60;99.90;;;;;;5025670;28;20136;-74
2020/12/02 03:17:52;;;;;;;478.42;52.97;;;0.60;99.90;;;;;;5018551;28;20455;-73
2020/12/02 03:20:32;;;;;;;398.85;49.78;;;0.60;99.90;;;;;;5028299;28;20072;-74
2020/12/02 03:22:58;;;;;;;602.53;57.15;;;0.70;99.90;;;;;;5029257;28;20496;-74
2020/12/02 03:25:30;;;;;;;731.15;65.78;;;0.60;99.90;;;;;;5027411;28;20532;-74
2020/12/02 03:27:57;;;;;;;522.17;55.92;;;0.60;99.90;;;;;;5027477;28;20134;-74
2020/12/02 03:30:24;;;;;;;664.20;61.88;;;0.60;99.90;;;;;;5021687;28;20136;-73
2020/12/02 03:32:50;;;;;;;646.85;60.53;;;0.60;99.90;;;;;;5028188;28;20172;-73
2020/12/02 03:35:17;;;;;;;638.38;61.92;;;0.60;99.90;;;;;;5010878;28;20068;-73
2020/12/02 03:37:43;;;;;;;631.92;62.58;;;0.60;99.90;;;;;;5031787;28;20132;-73
2020/12/02 03:40:10;;;;;;;581.80;61.83;;;0.60;99.90;;;;;;5029011;28;20408;-73
2020/12/02 03:42:37;;;;;;;425.08;55.55;;;0.60;99.90;;;;;;5021143;28;20053;-74
2020/12/02 03:45:06;;;;;;;561.00;58.53;;;0.60;99.90;;;;;;5014121;28;20053;-73
2020/12/02 03:47:32;;;;;;;763.88;66.55;;;0.60;99.90;;;;;;5032100;28;20054;-75
2020/12/02 03:49:58;;;;;;;751.97;63.05;;;0.60;99.90;;;;;;5010126;28;20474;-73
2020/12/02 03:52:25;;;;;;;561.60;60.60;;;0.60;99.90;;;;;;5029369;28;20088;-74
2020/12/02 03:54:52;;;;;;;839.80;73.75;;;0.60;99.90;;;;;;5032333;28;20365;-73
2020/12/02 03:57:19;;;;;;;597.72;60.25;;;0.60;99.90;;;;;;5032498;28;20124;-74
2020/12/02 03:59:45;;;;;;;685.60;69.43;;;0.50;99.90;;;;;;5030031;28;20485;-73
2020/12/02 04:02:11;;;;;;;556.03;59.53;;;0.60;99.90;;;;;;5029339;28;20095;-75
2020/12/02 04:04:38;;;;;;;419.88;55.03;;;0.60;99.90;;;;;;5013589;28;20053;-73
2020/12/02 04:07:04;;;;;;;555.30;63.30;;;0.70;99.90;;;;;;5032298;28;20518;-76
2020/12/02 04:09:31;;;;;;;461.20;61.22;;;0.60;99.90;;;;;;5032235;28;20133;-74
2020/12/02 04:11:57;;;;;;;504.17;61.72;;;0.60;99.90;;;;;;5024069;28;20081;-73
2020/12/02 04:14:24;;;;;;;473.98;56.53;;;0.60;99.90;;;;;;5032246;28;20128;-74
2020/12/02 04:16:50;;;;;;;470.73;60.05;;;0.60;99.90;;;;;;5025068;28;20071;-74
2020/12/02 04:19:16;;;;;;;462.73;58.75;;;0.70;99.90;;;;;;5030162;28;20124;-74
2020/12/02 04:21:43;;;;;;;312.95;53.85;;;0.60;99.90;;;;;;5030687;28;20045;-73
2020/12/02 04:24:09;;;;;;;266.20;52.28;;;0.60;99.90;;;;;;5030791;28;20416;-74
2020/12/02 04:26:36;;;;;;;405.92;58.83;;;0.60;99.90;;;;;;5031382;28;20171;-75
2020/12/02 04:29:04;;;;;;;448.85;63.10;;;0.60;99.90;;;;;;5029596;28;20144;-73
2020/12/02 04:31:31;;;;;;;236.48;52.80;;;0.60;99.90;;;;;;5014835;28;20097;-76
2020/12/02 04:33:57;;;;;;;192.15;51.03;;;0.60;99.90;;;;;;5029205;28;20239;-73
2020/12/02 04:36:24;;;;;;;294.40;56.17;;;0.60;99.90;;;;;;5025491;28;20054;-73
2020/12/02 04:38:51;;;;;;;205.85;50.13;;;0.60;99.90;;;;;;5029546;28;20049;-73
2020/12/02 04:41:18;;;;;;;230.82;52.15;;;0.60;99.90;;;;;;5030833;28;20140;-73
2020/12/02 04:43:52;;;;;;;216.80;52.78;;;0.60;99.90;;;;;;5028860;28;20084;-73
2020/12/02 04:46:24;;;;;;;211.77;53.65;;;0.60;99.90;;;;;;5021891;28;20124;-73
2020/12/02 04:48:59;;;;;;;241.38;55.50;;;0.60;99.90;;;;;;5027138;28;20176;-73
2020/12/02 04:51:28;;;;;;;227.20;53.90;;;0.60;99.90;;;;;;5029776;28;20042;-74
2020/12/02 04:53:59;;;;;;;258.20;57.60;;;0.60;99.90;;;;;;5028122;28;20108;-72
2020/12/02 04:56:26;;;;;;;228.00;55.63;;;0.60;99.90;;;;;;5030688;28;20122;-73
2020/12/02 04:58:55;;;;;;;201.98;53.67;;;0.60;99.90;;;;;;5031043;28;20471;-73
2020/12/02 05:01:30;;;;;;;251.25;59.25;;;0.60;99.90;;;;;;5025616;28;20053;-73
2020/12/02 05:04:19;;;;;;;208.65;57.13;;;0.60;99.90;;;;;;5030572;28;20117;-74
2020/12/02 05:07:04;;;;;;;220.52;55.58;;;0.60;99.90;;;;;;5030883;28;20099;-73
2020/12/02 05:09:50;;;;;;;210.63;57.10;;;0.60;99.90;;;;;;5022769;28;20435;-74
2020/12/02 05:12:31;;;;;;;217.27;54.67;;;0.60;99.90;;;;;;5028810;28;20045;-73
2020/12/02 05:15:25;;;;;;;217.10;56.45;;;0.60;99.90;;;;;;5028920;28;20140;-73
2020/12/02 05:18:19;;;;;;;228.60;58.28;;;0.60;99.90;;;;;;5027935;28;20511;-73
2020/12/02 05:21:08;;;;;;;223.07;57.53;;;0.50;99.90;;;;;;5022445;28;20053;-73
2020/12/02 05:23:35;;;;;;;214.52;56.88;;;0.60;99.90;;;;;;5001496;28;20077;-76
2020/12/02 05:26:16;;;;;;;194.43;56.58;;;0.50;99.90;;;;;;5029218;28;20381;-75
2020/12/02 05:28:46;;;;;;;235.63;58.35;;;0.60;99.90;;;;;;5024145;28;20115;-73
2020/12/02 05:31:18;;;;;;;230.18;57.30;;;0.60;99.90;;;;;;5010890;28;20041;-73
2020/12/02 05:33:44;;;;;;;243.30;61.50;;;0.50;99.90;;;;;;5030802;28;20049;-73
2020/12/02 05:36:32;;;;;;;225.68;59.17;;;0.50;99.90;;;;;;5026248;28;20084;-74
2020/12/02 05:39:17;;;;;;;236.05;61.13;;;0.60;99.90;;;;;;5012984;28;20527;-73
2020/12/02 05:41:48;;;;;;;225.05;57.67;;;0.60;99.90;;;;;;5023278;28;20049;-73
2020/12/02 05:44:24;;;;;;;242.15;61.17;;;0.50;99.90;;;;;;5016782;28;20119;-73
2020/12/02 05:46:58;;;;;;;220.05;58.70;;;0.50;99.90;;;;;;5026384;28;20052;-73
2020/12/02 05:49:38;;;;;;;223.93;58.65;;;0.60;99.90;;;;;;5012100;28;20081;-75
2020/12/02 05:52:19;;;;;;;209.73;57.13;;;0.50;99.90;;;;;;5012580;28;20050;-74
2020/12/02 05:54:47;;;;;;;197.98;56.90;;;0.50;99.90;;;;;;5029948;28;20343;-75
2020/12/02 05:57:16;;;;;;;253.93;62.72;;;0.50;99.90;;;;;;5008306;28;20038;-74
2020/12/02 05:59:47;;;;;;;201.55;57.42;;;0.50;99.90;;;;;;5008950;28;20045;-78
2020/12/02 06:02:16;;;;;;;189.73;54.78;;;0.50;99.90;;;;;;5029082;28;20460;-75
2020/12/02 06:04:48;;;;;;;226.27;57.83;;;0.50;99.90;;;;;;5010551;28;20107;-75
2020/12/02 06:07:14;;;;;;;207.90;57.05;;;0.50;99.90;;;;;;5023699;28;20037;-75
2020/12/02 06:09:50;;;;;;;192.15;56.08;;;0.50;99.90;;;;;;5029009;28;20073;-75
2020/12/02 06:12:24;;;;;;;221.30;59.95;;;0.50;99.90;;;;;;5024918;28;20135;-74
2020/12/02 06:14:53;;;;;;;210.98;57.97;;;0.60;99.90;;;;;;5025513;28;20068;-74
2020/12/02 06:17:30;;;;;;;212.70;58.22;;;0.60;99.90;;;;;;5027917;28;20111;-71
2020/12/02 06:20:00;;;;;;;208.70;55.55;;;0.50;99.90;;;;;;5026235;28;20045;-72
2020/12/02 06:22:41;;;;;;;204.85;57.88;;;0.60;99.90;;;;;;5029983;28;20132;-76
2020/12/02 06:25:42;;;;;;;213.25;56.03;;;0.50;99.90;;;;;;5029287;28;20095;-72
2020/12/02 06:28:10;;;;;;;196.45;52.88;;;0.40;99.90;;;;;;5002973;28;20042;-73
2020/12/02 06:30:36;;;;;;;196.23;54.83;;;0.50;99.90;;;;;;5010730;28;20112;-73
2020/12/02 06:33:14;;;;;;;201.88;54.25;;;0.50;99.90;;;;;;5022013;28;20121;-73
2020/12/02 06:35:41;;;;;;;207.82;54.35;;;0.50;99.90;;;;;;5009653;28;20465;-72
2020/12/02 06:38:26;;;;;;;195.75;52.83;;;0.50;99.90;;;;;;5020122;28;20037;-72
2020/12/02 06:40:58;;;;;;;195.95;52.17;;;0.50;99.90;;;;;;5014438;28;20038;-73
2020/12/02 06:43:44;;;;;;;189.82;51.67;;;0.50;99.90;;;;;;5026004;28;20053;-73
2020/12/02 06:46:13;;;;;;;185.73;51.35;;;0.50;99.90;;;;;;5002624;28;20349;-72
2020/12/02 06:48:39;;;;;;;185.80;54.15;;;0.50;99.90;;;;;;5011910;28;20049;-72
2020/12/02 06:51:13;;;;;;;191.02;52.47;;;0.50;99.90;;;;;;5027286;28;20084;-73
2020/12/02 06:53:40;;;;;;;181.27;51.45;;;0.50;99.90;;;;;;5006480;28;20092;-75
2020/12/02 06:56:07;;;;;;;197.75;53.53;;;0.50;99.90;;;;;;5014288;28;20069;-73
2020/12/02 06:58:33;;;;;;;168.30;49.90;;;0.40;99.90;;;;;;5006446;28;20071;-74
2020/12/02 07:01:02;;;;;;;179.52;50.08;;;0.40;99.90;;;;;;5020812;28;20045;-74
2020/12/02 07:03:34;;;;;;;182.98;49.97;;;0.40;99.90;;;;;;5005961;28;20099;-74
2020/12/02 07:06:25;;;;;;;190.38;48.85;;;0.40;99.90;;;;;;5002038;28;20129;-73
2020/12/02 07:09:12;;;;;;;165.70;47.20;;;0.40;99.90;;;;;;5018485;28;20073;-73
2020/12/02 07:11:47;;;;;;;171.70;47.47;;;0.30;99.90;;;;;;5006329;28;20073;-73
2020/12/02 07:14:20;;;;;;;161.80;47.13;;;0.30;99.90;;;;;;5023628;28;20104;-73
2020/12/02 07:16:55;;;;;;;166.30;46.33;;;0.30;99.90;;;;;;5037253;28;20057;-73
2020/12/02 07:19:27;;;;;;;148.52;45.00;;;0.40;99.90;;;;;;5032654;28;20444;-74
2020/12/02 07:21:58;;;;;;;160.52;45.63;;;0.30;99.90;;;;;;5039767;28;20514;-73
2020/12/02 07:24:36;;;;;;;148.90;43.90;;;0.30;99.90;;;;;;5037194;28;20057;-73
2020/12/02 07:27:03;;;;;;;158.45;45.58;;;0.30;99.90;;;;;;5035998;28;20045;-72
2020/12/02 07:29:30;;;;;;;165.35;46.30;;;0.30;99.90;;;;;;5035396;28;20049;-75
2020/12/02 07:32:04;;;;;;;168.05;46.50;;;0.20;99.90;;;;;;5041177;28;20130;-73
2020/12/02 07:34:33;;;;;;;150.75;45.17;;;0.30;99.90;;;;;;5041112;28;20515;-74
2020/12/02 07:37:20;;;;;;;143.20;43.45;;;0.30;99.90;;;;;;5041441;28;20049;-72
2020/12/02 07:39:58;;;;;;;146.20;44.58;;;0.20;99.90;;;;;;5042259;28;20049;-73
2020/12/02 07:42:37;;;;;;;149.27;44.78;;;0.20;99.90;;;;;;5037980;28;20057;-74
2020/12/02 07:45:15;;;;;;;141.95;43.35;;;0.20;99.90;;;;;;5036986;28;20095;-73
2020/12/02 07:47:50;;;;;;;155.40;42.92;;;0.20;99.90;;;;;;5045929;28;20118;-73
2020/12/02 07:50:31;;;;;;;141.43;43.55;;;0.30;99.90;;;;;;5035891;28;20069;-72
2020/12/02 07:53:31;;;;;;;141.90;43.20;;;0.20;99.90;;;;;;5045842;28;20541;-71
2020/12/02 07:55:59;;;;;;;140.60;42.88;;;0.20;99.90;;;;;;5041302;28;20053;-72
2020/12/02 07:58:37;;;;;;;128.70;41.78;;;0.30;99.90;;;;;;5041561;28;20136;-74
2020/12/02 08:01:16;;;;;;;136.20;41.47;;;0.20;99.90;;;;;;5037976;28;20072;-73
2020/12/02 08:03:45;;;;;;;122.18;39.83;;;0.20;99.90;;;;;;5039786;28;20144;-72
2020/12/02 08:06:41;;;;;;;130.20;41.80;;;0.20;99.90;;;;;;5037949;28;20152;-71
2020/12/02 08:09:07;;;;;;;127.45;41.03;;;0.20;99.90;;;;;;5033498;28;20488;-73
2020/12/02 08:11:34;;;;;;;130.00;39.80;;;0.20;99.90;;;;;;5037772;28;20459;-73
2020/12/02 08:14:00;;;;;;;136.23;41.08;;;0.30;99.90;;;;;;5040707;28;20475;-73
2020/12/02 08:16:41;;;;;;;119.25;40.30;;;0.30;99.90;;;;;;5037030;28;20065;-74
2020/12/02 08:19:12;;;;;;;136.73;41.75;;;0.30;99.90;;;;;;5038857;28;20045;-73
2020/12/02 08:21:49;;;;;;;115.93;39.30;;;0.30;99.90;;;;;;5035670;28;20155;-75
2020/12/02 08:24:36;;;;;;;117.15;37.95;;;0.30;99.90;;;;;;5044849;28;20173;-74
2020/12/02 08:27:11;;;;;;;116.80;39.58;;;0.30;99.90;;;;;;5065220;28;20067;-74
2020/12/02 08:29:40;;;;;;;112.03;37.17;;;0.30;99.90;;;;;;5039594;28;20083;-74
2020/12/02 08:32:25;;;;;;;116.75;37.95;;;0.30;99.90;;;;;;5043066;28;20134;-74
2020/12/02 08:34:52;;;;;;;108.10;37.30;;;0.30;99.90;;;;;;5035808;28;20588;-72
2020/12/02 08:37:19;;;;;;;111.68;37.58;;;0.30;99.90;;;;;;5049964;28;20041;-73
2020/12/02 08:39:50;;;;;;;105.15;38.58;;;0.30;99.90;;;;;;5037174;28;20455;-74
2020/12/02 08:42:32;;;;;;;96.28;35.65;;;0.30;99.90;;;;;;5043832;28;20215;-72
2020/12/02 08:45:22;;;;;;;108.43;36.83;;;0.30;99.90;;;;;;5040468;28;20060;-72
2020/12/02 08:47:57;;;;;;;100.50;37.63;;;0.30;99.90;;;;;;5043581;28;20384;-71
2020/12/02 08:50:30;;;;;;;103.78;36.42;;;0.30;99.90;;;;;;5038445;28;20063;-72
2020/12/02 08:52:58;;;;;;;;;;;0.40;99.90;;;;;;5041773;28;20053;-73
2020/12/02 08:55:25;;;;;;;101.43;36.15;;;0.40;99.90;;;;;;5047516;28;19928;-73
2020/12/02 08:57:52;;;;;;;101.50;37.13;;;0.40;99.90;;;;;;5049518;28;20061;-73
2020/12/02 09:00:21;;;;;;;107.05;35.08;;;0.40;99.90;;;;;;5041177;28;20492;-74
2020/12/02 09:02:48;;;;;;;96.38;35.10;;;0.50;99.90;;;;;;5042934;28;20048;-74
2020/12/02 09:05:16;;;;;;;89.22;34.38;;;0.50;99.90;;;;;;5037955;28;20045;-72
2020/12/02 09:07:42;;;;;;;90.82;33.88;;;0.40;99.90;;;;;;5039234;28;20041;-73
2020/12/02 09:10:09;;;;;;;95.45;36.05;;;0.40;99.90;;;;;;5043000;28;20408;-72
2020/12/02 09:12:36;;;;;;;84.65;33.67;;;0.40;99.90;;;;;;5036166;28;20056;-73
2020/12/02 09:15:04;;;;;;;80.68;33.65;;;0.40;99.90;;;;;;5034378;28;20400;-72
2020/12/02 09:17:30;;;;;;;84.10;34.28;;;0.50;99.90;;;;;;5027381;28;20077;-75
2020/12/02 09:19:57;;;;;;;88.65;32.53;;;0.50;99.90;;;;;;5000743;28;20489;-72
2020/12/02 09:22:24;;;;;;;79.22;34.22;;;0.50;99.90;;;;;;5013187;28;20060;-73
2020/12/02 09:24:50;;;;;;;92.88;33.85;;;0.50;99.90;;;;;;5011498;28;20404;-74
2020/12/02 09:27:17;;;;;;;77.75;31.38;;;0.50;99.90;;;;;;5009782;28;20042;-74
2020/12/02 09:29:44;;;;;;;79.07;30.05;;;0.50;99.90;;;;;;5002837;28;20053;-74
2020/12/02 09:32:11;;;;;;;76.13;30.48;;;0.50;99.90;;;;;;5026981;28;20100;-73
2020/12/02 09:34:38;;;;;;;72.50;29.80;;;0.50;99.90;;;;;;5028712;28;20107;-74
2020/12/02 09:37:11;;;;;;;68.10;29.08;;;0.50;99.90;;;;;;5030347;28;20042;-74
2020/12/02 09:39:40;;;;;;;63.42;27.67;;;0.50;99.90;;;;;;5022315;28;20057;-75
2020/12/02 09:42:35;;;;;;;68.15;28.63;;;0.60;99.90;;;;;;5010631;28;20057;-75
2020/12/02 09:45:31;;;;;;;61.97;27.52;;;0.50;99.90;;;;;;5011093;28;20215;-74
2020/12/02 09:48:06;;;;;;;65.47;27.52;;;0.50;99.90;;;;;;4982459;28;20054;-74
2020/12/02 09:50:33;;;;;;;66.10;26.58;;;0.50;99.90;;;;;;5009832;28;20058;-72
2020/12/02 09:53:03;;;;;;;63.53;27.52;;;0.60;99.90;;;;;;5012217;28;20427;-72
2020/12/02 09:55:30;;;;;;;58.97;26.85;;;0.60;99.90;;;;;;5028419;28;20346;-74
2020/12/02 09:57:56;;;;;;;59.42;26.50;;;0.70;99.90;;;;;;5011618;28;20081;-74
2020/12/02 10:00:23;;;;;;;56.00;25.17;;;0.60;99.90;;;;;;5027234;28;20046;-74
2020/12/02 10:03:02;;;;;;;55.83;27.05;;;0.60;99.90;;;;;;5022565;28;20053;-74
2020/12/02 10:06:06;;;;;;;55.75;26.33;;;0.70;99.90;;;;;;5023654;28;20067;-74
2020/12/02 10:08:50;;;;;;;54.92;25.40;;;0.70;99.90;;;;;;5006640;28;20104;-73
2020/12/02 10:11:40;;;;;;;49.13;23.88;;;0.80;99.90;;;;;;5010427;28;20123;-73
2020/12/02 10:14:40;;;;;;;46.33;22.30;;;0.80;99.90;;;;;;5029190;28;20045;-75
2020/12/02 10:17:16;;;;;;;43.42;21.65;;;0.80;99.90;;;;;;5023661;28;20053;-74
2020/12/02 10:20:08;;;;;;;42.70;21.42;;;0.80;99.90;;;;;;5028051;28;20136;-75
2020/12/02 10:23:00;;;;;;;41.55;20.95;;;0.80;99.90;;;;;;5004537;28;20049;-73
2020/12/02 10:25:45;;;;;;;41.08;20.65;;;0.70;99.90;;;;;;5002958;28;20061;-75
2020/12/02 10:28:47;;;;;;;43.78;21.25;;;0.80;99.90;;;;;;5022148;28;20130;-73
2020/12/02 10:31:21;;;;;;;41.20;20.15;;;0.80;99.90;;;;;;5000328;28;20038;-73
2020/12/02 10:33:57;;;;;;;41.72;21.20;;;0.80;99.90;;;;;;5009693;28;20072;-73
2020/12/02 10:36:32;;;;;;;37.28;18.92;;;0.90;99.90;;;;;;5010295;28;20071;-73
2020/12/02 10:39:04;;;;;;;34.95;18.15;;;0.80;99.90;;;;;;5002910;28;20103;-72
2020/12/02 10:41:33;;;;;;;36.40;19.00;;;0.90;99.90;;;;;;5020229;28;20130;-74
2020/12/02 10:44:05;;;;;;;38.05;17.70;;;0.90;99.90;;;;;;5009464;28;20056;-72
2020/12/02 10:46:34;;;;;;;22.67;13.93;;;1.00;99.90;;;;;;5004971;28;20049;-74
2020/12/02 10:49:17;;;;;;;22.77;13.40;;;1.10;99.90;;;;;;5022953;28;20053;-74
2020/12/02 10:51:50;;;;;;;20.58;12.40;;;1.10;99.90;;;;;;5024723;28;20041;-73
2020/12/02 10:54:17;;;;;;;23.33;12.45;;;1.10;99.90;;;;;;5008856;28;20064;-72
2020/12/02 10:56:44;;;;;;;21.08;12.40;;;1.20;99.90;;;;;;5026741;28;20085;-72
2020/12/02 10:59:13;;;;;;;22.45;13.30;;;1.20;99.90;;;;;;5028018;28;20114;-73
2020/12/02 11:01:41;;;;;;;27.80;13.05;;;1.30;99.90;;;;;;5016732;28;20042;-72
2020/12/02 11:04:16;;;;;;;22.73;12.68;;;1.30;99.90;;;;;;5010588;28;20053;-71
2020/12/02 11:07:29;;;;;;;21.27;12.75;;;1.40;99.90;;;;;;5010537;28;20107;-72
2020/12/02 11:10:29;;;;;;;22.73;12.68;;;1.40;99.90;;;;;;4988722;28;20056;-72
2020/12/02 11:13:32;;;;;;;19.67;12.35;;;1.50;99.90;;;;;;5008807;28;20056;-72
2020/12/02 11:16:13;;;;;;;19.67;11.85;;;1.60;99.90;;;;;;5025245;28;20135;-71
2020/12/02 11:19:08;;;;;;;22.77;13.00;;;1.60;99.90;;;;;;5045811;28;20055;-71
2020/12/02 11:22:00;;;;;;;21.02;12.48;;;1.60;99.90;;;;;;5044924;28;20137;-71
2020/12/02 11:24:37;;;;;;;23.67;13.50;;;1.60;99.90;;;;;;5059514;28;20049;-72
2020/12/02 11:27:04;;;;;;;29.77;14.35;;;1.40;99.90;;;;;;5045762;28;20483;-74
2020/12/02 11:29:30;;;;;;;27.05;13.98;;;1.30;99.90;;;;;;5048136;28;20045;-72
2020/12/02 11:32:04;;;;;;;28.38;16.10;;;1.20;99.90;;;;;;5045076;28;20049;-73
2020/12/02 11:35:03;;;;;;;34.55;17.05;;;1.20;99.90;;;;;;5046693;28;20044;-73
2020/12/02 11:38:01;;;;;;;32.00;15.85;;;1.20;99.90;;;;;;5041321;28;20050;-73
2020/12/02 11:40:57;;;;;;;36.92;18.65;;;1.20;99.90;;;;;;5039555;28;20053;-72
2020/12/02 11:43:32;;;;;;;35.75;18.25;;;1.10;99.90;;;;;;5038860;28;20061;-72
2020/12/02 11:45:59;;;;;;;42.47;19.55;;;1.10;99.90;;;;;;5054869;28;20044;-73
2020/12/02 11:48:33;;;;;;;43.65;20.98;;;1.00;99.90;;;;;;5032898;28;20057;-72
2020/12/02 11:51:12;;;;;;;47.65;21.27;;;1.10;99.90;;;;;;5046332;28;20052;-72
2020/12/02 11:53:44;;;;;;;50.15;23.05;;;1.10;99.90;;;;;;5041963;28;20458;-75
2020/12/02 11:56:24;;;;;;;46.10;22.13;;;1.10;99.90;;;;;;5039229;28;20443;-71
2020/12/02 11:58:59;;;;;;;47.20;21.13;;;1.10;99.90;;;;;;5038251;28;20047;-73
2020/12/02 12:01:49;;;;;;;48.92;23.15;;;1.00;99.90;;;;;;5039634;28;20072;-72
2020/12/02 12:04:34;;;;;;;45.67;21.85;;;1.00;99.90;;;;;;5042887;28;20049;-73
2020/12/02 12:07:13;;;;;;;54.30;24.60;;;1.00;99.90;;;;;;5046872;28;20455;-71
2020/12/02 12:10:04;;;;;;;52.85;23.17;;;1.00;99.90;;;;;;5045814;28;20045;-72
2020/12/02 12:12:49;;;;;;;47.95;22.88;;;0.90;99.90;;;;;;5036629;28;20041;-74
2020/12/02 12:15:29;;;;;;;52.92;23.88;;;0.90;99.90;;;;;;5036532;28;20061;-74
2020/12/02 12:18:02;;;;;;;49.28;24.27;;;0.90;99.90;;;;;;5007289;28;20525;-73
2020/12/02 12:20:35;;;;;;;54.67;25.63;;;0.80;99.90;;;;;;5027959;28;20107;-72
2020/12/02 12:23:16;;;;;;;62.20;27.67;;;0.70;99.90;;;;;;5013571;28;20508;-72
2020/12/02 12:25:43;;;;;;;54.83;25.95;;;0.80;99.90;;;;;;5007655;28;20052;-73
2020/12/02 12:28:20;;;;;;;63.20;24.88;;;0.70;99.90;;;;;;5022412;28;20559;-72
2020/12/02 12:30:47;;;;;;;62.17;26.88;;;0.70;99.90;;;;;;5023272;28;20480;-72
2020/12/02 12:33:48;;;;;;;56.83;26.88;;;0.70;99.90;;;;;;5026892;28;20045;-73
2020/12/02 12:36:22;;;;;;;72.20;30.60;;;0.70;99.90;;;;;;4980723;28;20049;-73
2020/12/02 12:39:02;;;;;;;73.65;30.83;;;0.70;99.90;;;;;;5003697;28;20049;-73
2020/12/02 12:41:36;;;;;;;80.45;31.13;;;0.70;99.90;;;;;;5010856;28;20100;-74
2020/12/02 12:44:29;;;;;;;79.95;33.05;;;0.70;99.90;;;;;;5019483;28;20073;-73
2020/12/02 12:47:16;;;;;;;60.40;23.93;;;0.70;99.90;;;;;;5016481;28;20077;-73
2020/12/02 12:49:45;;;;;;;79.20;31.27;;;0.60;99.90;;;;;;5009245;28;20199;-73
2020/12/02 12:52:18;;;;;;;74.82;31.65;;;0.60;99.90;;;;;;5005565;28;20049;-73
2020/12/02 12:54:47;;;;;;;79.32;31.15;;;0.60;99.90;;;;;;5009029;28;20583;-74
2020/12/02 12:57:17;;;;;;;71.43;30.13;;;0.70;99.90;;;;;;5030655;28;20069;-74
2020/12/02 12:59:43;;;;;;;72.55;31.20;;;0.60;99.90;;;;;;5016686;28;20427;-72
2020/12/02 13:02:23;;;;;;;83.53;32.20;;;0.60;99.90;;;;;;5019504;28;20111;-73
2020/12/02 13:04:50;;;;;;;78.70;31.02;;;0.60;99.90;;;;;;5001628;28;20152;-72
2020/12/02 13:07:38;;;;;;;66.80;27.95;;;0.60;99.90;;;;;;5017376;28;20046;-73